sensor_id;sensor_type;location;lat;lon;timestamp;pressure;altitude;pressure_sealevel;temperature;humidity
82621;BME280;72291;55.002;-1.592;2024-01-16T00:00:51;100231.81;;;-0.73;45.89
82621;BME280;72291;55.002;-1.592;2024-01-16T00:03:17;100225.39;;;-0.11;44.99
82621;BME280;72291;55.002;-1.592;2024-01-16T00:05:42;100226.97;;;-0.58;45.83
82621;BME280;72291;55.002;-1.592;2024-01-16T00:08:07;100222.84;;;-0.49;46.57
82621;BME280;72291;55.002;-1.592;2024-01-16T00:10:32;100222.92;;;-0.37;46.56
82621;BME280;72291;55.002;-1.592;2024-01-16T00:12:58;100218.23;;;-0.44;46.05
82621;BME280;72291;55.002;-1.592;2024-01-16T00:15:24;100216.24;;;-0.69;46.77
82621;BME280;72291;55.002;-1.592;2024-01-16T00:17:48;100213.81;;;-0.72;46.59
82621;BME280;72291;55.002;-1.592;2024-01-16T00:20:14;100212.82;;;-1.08;47.73
82621;BME280;72291;55.002;-1.592;2024-01-16T00:22:39;100206.72;;;-0.74;47.86
82621;BME280;72291;55.002;-1.592;2024-01-16T00:25:06;100207.32;;;-0.94;46.97
82621;BME280;72291;55.002;-1.592;2024-01-16T00:27:31;100205.24;;;-0.28;46.14
82621;BME280;72291;55.002;-1.592;2024-01-16T00:29:55;100201.97;;;-0.50;46.43
82621;BME280;72291;55.002;-1.592;2024-01-16T00:32:20;100202.29;;;-0.63;46.18
82621;BME280;72291;55.002;-1.592;2024-01-16T00:34:46;100196.60;;;-0.48;45.93
82621;BME280;72291;55.002;-1.592;2024-01-16T00:37:11;100194.89;;;-0.88;47.27
82621;BME280;72291;55.002;-1.592;2024-01-16T00:39:36;100189.50;;;-1.21;48.31
82621;BME280;72291;55.002;-1.592;2024-01-16T00:42:02;100185.19;;;-1.37;48.15
82621;BME280;72291;55.002;-1.592;2024-01-16T00:44:28;100182.73;;;-0.33;46.50
82621;BME280;72291;55.002;-1.592;2024-01-16T00:46:52;100184.12;;;-1.04;47.55
82621;BME280;72291;55.002;-1.592;2024-01-16T00:49:18;100177.91;;;-0.49;45.92
82621;BME280;72291;55.002;-1.592;2024-01-16T00:51:44;100175.57;;;-0.20;45.22
82621;BME280;72291;55.002;-1.592;2024-01-16T00:54:08;100184.52;;;-2.22;49.34
82621;BME280;72291;55.002;-1.592;2024-01-16T00:56:34;100175.15;;;-0.88;46.41
82621;BME280;72291;55.002;-1.592;2024-01-16T00:58:59;100169.94;;;-0.30;45.96
82621;BME280;72291;55.002;-1.592;2024-01-16T01:01:24;100167.67;;;-0.73;46.81
82621;BME280;72291;55.002;-1.592;2024-01-16T01:03:50;100163.48;;;-1.00;46.92
82621;BME280;72291;55.002;-1.592;2024-01-16T01:06:15;100161.89;;;-1.16;47.04
82621;BME280;72291;55.002;-1.592;2024-01-16T01:08:40;100164.27;;;-1.66;48.67
82621;BME280;72291;55.002;-1.592;2024-01-16T01:11:05;100159.23;;;-0.29;46.40
82621;BME280;72291;55.002;-1.592;2024-01-16T01:13:31;100157.37;;;-0.75;46.06
82621;BME280;72291;55.002;-1.592;2024-01-16T01:15:56;100151.98;;;0.21;43.82
82621;BME280;72291;55.002;-1.592;2024-01-16T01:18:21;100156.33;;;-0.75;46.36
82621;BME280;72291;55.002;-1.592;2024-01-16T01:20:47;100151.27;;;0.38;44.63
82621;BME280;72291;55.002;-1.592;2024-01-16T01:23:12;100147.66;;;-0.04;44.39
82621;BME280;72291;55.002;-1.592;2024-01-16T01:25:37;100141.21;;;0.29;43.74
82621;BME280;72291;55.002;-1.592;2024-01-16T01:28:04;100136.36;;;-0.19;44.70
82621;BME280;72291;55.002;-1.592;2024-01-16T01:30:28;100132.74;;;-0.64;46.59
82621;BME280;72291;55.002;-1.592;2024-01-16T01:32:54;100125.66;;;0.37;44.36
82621;BME280;72291;55.002;-1.592;2024-01-16T01:35:19;100125.94;;;-0.97;46.39
82621;BME280;72291;55.002;-1.592;2024-01-16T01:37:44;100124.20;;;-0.58;45.45
82621;BME280;72291;55.002;-1.592;2024-01-16T01:40:10;100119.73;;;-1.15;47.31
82621;BME280;72291;55.002;-1.592;2024-01-16T01:42:35;100115.93;;;-0.68;46.30
82621;BME280;72291;55.002;-1.592;2024-01-16T01:45:00;100115.18;;;-0.64;45.62
82621;BME280;72291;55.002;-1.592;2024-01-16T01:47:26;100113.17;;;-1.61;47.13
82621;BME280;72291;55.002;-1.592;2024-01-16T01:49:51;100115.12;;;-0.47;46.35
82621;BME280;72291;55.002;-1.592;2024-01-16T01:52:17;100109.27;;;0.07;45.03
82621;BME280;72291;55.002;-1.592;2024-01-16T01:54:43;100112.45;;;-0.09;45.10
82621;BME280;72291;55.002;-1.592;2024-01-16T01:57:08;100109.63;;;-1.15;46.56
82621;BME280;72291;55.002;-1.592;2024-01-16T01:59:32;100101.00;;;0.22;44.71
82621;BME280;72291;55.002;-1.592;2024-01-16T02:01:58;100101.18;;;-1.00;47.03
82621;BME280;72291;55.002;-1.592;2024-01-16T02:04:25;100097.47;;;-0.14;45.40
82621;BME280;72291;55.002;-1.592;2024-01-16T02:06:48;100091.43;;;-0.05;44.88
82621;BME280;72291;55.002;-1.592;2024-01-16T02:09:13;100094.79;;;0.05;45.25
82621;BME280;72291;55.002;-1.592;2024-01-16T02:11:38;100092.35;;;-1.58;47.79
82621;BME280;72291;55.002;-1.592;2024-01-16T02:14:07;100085.16;;;-1.40;47.51
82621;BME280;72291;55.002;-1.592;2024-01-16T02:16:37;100076.42;;;-0.25;46.08
82621;BME280;72291;55.002;-1.592;2024-01-16T02:18:55;100077.46;;;-0.98;47.67
82621;BME280;72291;55.002;-1.592;2024-01-16T02:21:22;100073.20;;;-0.52;47.38
82621;BME280;72291;55.002;-1.592;2024-01-16T02:23:46;100064.97;;;-0.90;47.99
82621;BME280;72291;55.002;-1.592;2024-01-16T02:26:10;100065.08;;;-0.53;46.13
82621;BME280;72291;55.002;-1.592;2024-01-16T02:28:37;100060.13;;;-0.50;45.87
82621;BME280;72291;55.002;-1.592;2024-01-16T02:31:01;100065.03;;;-0.28;46.66
82621;BME280;72291;55.002;-1.592;2024-01-16T02:33:26;100067.50;;;-0.82;46.35
82621;BME280;72291;55.002;-1.592;2024-01-16T02:35:52;100061.96;;;0.07;45.53
82621;BME280;72291;55.002;-1.592;2024-01-16T02:38:17;100068.99;;;-0.55;46.54
82621;BME280;72291;55.002;-1.592;2024-01-16T02:40:42;100067.81;;;-1.62;48.45
82621;BME280;72291;55.002;-1.592;2024-01-16T02:43:07;100061.94;;;-1.53;47.03
82621;BME280;72291;55.002;-1.592;2024-01-16T02:45:33;100055.66;;;-0.97;46.23
82621;BME280;72291;55.002;-1.592;2024-01-16T02:47:59;100054.11;;;-0.41;45.91
82621;BME280;72291;55.002;-1.592;2024-01-16T02:50:24;100047.32;;;-0.39;45.46
82621;BME280;72291;55.002;-1.592;2024-01-16T02:52:49;100045.81;;;-1.43;46.72
82621;BME280;72291;55.002;-1.592;2024-01-16T02:55:15;100044.87;;;-0.70;45.91
82621;BME280;72291;55.002;-1.592;2024-01-16T02:57:40;100042.78;;;-0.29;45.86
82621;BME280;72291;55.002;-1.592;2024-01-16T03:00:06;100039.00;;;-0.08;45.10
82621;BME280;72291;55.002;-1.592;2024-01-16T03:02:30;100032.62;;;0.67;43.73
82621;BME280;72291;55.002;-1.592;2024-01-16T03:04:56;100032.66;;;0.08;44.22
82621;BME280;72291;55.002;-1.592;2024-01-16T03:07:21;100033.43;;;-1.02;46.82
82621;BME280;72291;55.002;-1.592;2024-01-16T03:09:46;100028.67;;;-1.79;48.34
82621;BME280;72291;55.002;-1.592;2024-01-16T03:12:12;100028.30;;;-0.04;45.21
82621;BME280;72291;55.002;-1.592;2024-01-16T03:14:37;100028.26;;;-1.34;46.80
82621;BME280;72291;55.002;-1.592;2024-01-16T03:17:04;100027.07;;;-0.56;45.64
82621;BME280;72291;55.002;-1.592;2024-01-16T03:19:28;100030.35;;;-0.81;46.52
82621;BME280;72291;55.002;-1.592;2024-01-16T03:21:53;100021.12;;;-0.10;44.78
82621;BME280;72291;55.002;-1.592;2024-01-16T03:24:18;100019.94;;;-0.02;44.58
82621;BME280;72291;55.002;-1.592;2024-01-16T03:26:44;100018.17;;;0.48;43.95
82621;BME280;72291;55.002;-1.592;2024-01-16T03:29:10;100011.35;;;0.61;43.96
82621;BME280;72291;55.002;-1.592;2024-01-16T03:31:34;100015.68;;;-1.71;46.92
82621;BME280;72291;55.002;-1.592;2024-01-16T03:33:59;100018.28;;;-1.29;46.38
82621;BME280;72291;55.002;-1.592;2024-01-16T03:36:25;100008.29;;;0.69;43.74
82621;BME280;72291;55.002;-1.592;2024-01-16T03:38:51;100010.22;;;-0.62;45.39
82621;BME280;72291;55.002;-1.592;2024-01-16T03:41:16;100002.00;;;0.48;43.76
82621;BME280;72291;55.002;-1.592;2024-01-16T03:43:41;100006.27;;;-1.18;46.13
82621;BME280;72291;55.002;-1.592;2024-01-16T03:46:07;100003.78;;;-1.67;47.37
82621;BME280;72291;55.002;-1.592;2024-01-16T03:48:32;99992.59;;;-0.37;45.37
82621;BME280;72291;55.002;-1.592;2024-01-16T03:50:57;99996.43;;;-0.79;45.65
82621;BME280;72291;55.002;-1.592;2024-01-16T03:53:24;99988.24;;;-0.75;45.79
82621;BME280;72291;55.002;-1.592;2024-01-16T03:55:48;99987.32;;;-1.21;46.31
82621;BME280;72291;55.002;-1.592;2024-01-16T03:58:13;99984.20;;;-1.28;46.32
82621;BME280;72291;55.002;-1.592;2024-01-16T04:00:38;99981.49;;;-0.67;46.12
82621;BME280;72291;55.002;-1.592;2024-01-16T04:03:04;99983.21;;;-1.25;47.59
82621;BME280;72291;55.002;-1.592;2024-01-16T04:05:30;99984.17;;;-0.85;47.28
82621;BME280;72291;55.002;-1.592;2024-01-16T04:07:56;99980.76;;;-0.83;46.94
82621;BME280;72291;55.002;-1.592;2024-01-16T04:10:20;99979.41;;;-0.92;46.98
82621;BME280;72291;55.002;-1.592;2024-01-16T04:12:46;99977.99;;;-1.73;48.98
82621;BME280;72291;55.002;-1.592;2024-01-16T04:15:10;99977.96;;;-2.10;49.22
82621;BME280;72291;55.002;-1.592;2024-01-16T04:17:36;99971.49;;;-1.43;48.66
82621;BME280;72291;55.002;-1.592;2024-01-16T04:20:01;99967.88;;;-0.82;47.53
82621;BME280;72291;55.002;-1.592;2024-01-16T04:22:26;99972.72;;;-1.28;47.84
82621;BME280;72291;55.002;-1.592;2024-01-16T04:24:52;99970.46;;;-1.86;48.83
82621;BME280;72291;55.002;-1.592;2024-01-16T04:27:17;99969.94;;;-1.39;48.15
82621;BME280;72291;55.002;-1.592;2024-01-16T04:29:44;99968.19;;;-1.61;47.68
82621;BME280;72291;55.002;-1.592;2024-01-16T04:32:08;99962.84;;;-1.05;47.03
82621;BME280;72291;55.002;-1.592;2024-01-16T04:34:33;99964.28;;;-1.27;47.88
82621;BME280;72291;55.002;-1.592;2024-01-16T04:36:59;99959.95;;;-1.42;47.69
82621;BME280;72291;55.002;-1.592;2024-01-16T04:39:24;99957.34;;;-1.00;47.20
82621;BME280;72291;55.002;-1.592;2024-01-16T04:41:49;99955.94;;;-1.87;48.30
82621;BME280;72291;55.002;-1.592;2024-01-16T04:44:15;99944.81;;;-0.66;46.40
82621;BME280;72291;55.002;-1.592;2024-01-16T04:46:40;99944.75;;;-0.61;46.61
82621;BME280;72291;55.002;-1.592;2024-01-16T04:49:05;99932.41;;;0.54;43.88
82621;BME280;72291;55.002;-1.592;2024-01-16T04:51:31;99933.32;;;0.03;45.13
82621;BME280;72291;55.002;-1.592;2024-01-16T04:53:56;99928.20;;;-0.43;45.39
82621;BME280;72291;55.002;-1.592;2024-01-16T04:56:21;99923.06;;;-0.86;46.28
82621;BME280;72291;55.002;-1.592;2024-01-16T04:58:47;99918.03;;;-0.16;45.00
82621;BME280;72291;55.002;-1.592;2024-01-16T05:01:12;99910.90;;;-0.29;45.24
82621;BME280;72291;55.002;-1.592;2024-01-16T05:03:37;99908.19;;;-0.37;46.02
82621;BME280;72291;55.002;-1.592;2024-01-16T05:06:04;99910.10;;;-0.31;45.47
82621;BME280;72291;55.002;-1.592;2024-01-16T05:08:28;99905.07;;;-0.81;46.34
82621;BME280;72291;55.002;-1.592;2024-01-16T05:10:53;99901.41;;;-0.50;45.35
82621;BME280;72291;55.002;-1.592;2024-01-16T05:13:18;99899.85;;;-0.30;45.22
82621;BME280;72291;55.002;-1.592;2024-01-16T05:15:44;99899.35;;;-0.17;45.41
82621;BME280;72291;55.002;-1.592;2024-01-16T05:18:09;99893.18;;;-0.37;45.57
82621;BME280;72291;55.002;-1.592;2024-01-16T05:20:34;99890.32;;;-1.09;47.41
82621;BME280;72291;55.002;-1.592;2024-01-16T05:23:00;99884.59;;;-0.78;46.41
82621;BME280;72291;55.002;-1.592;2024-01-16T05:25:25;99883.75;;;-0.76;46.73
82621;BME280;72291;55.002;-1.592;2024-01-16T05:27:50;99880.94;;;-1.00;46.91
82621;BME280;72291;55.002;-1.592;2024-01-16T05:30:16;99882.73;;;-0.94;46.46
82621;BME280;72291;55.002;-1.592;2024-01-16T05:32:41;99876.61;;;-0.04;45.19
82621;BME280;72291;55.002;-1.592;2024-01-16T05:35:06;99869.68;;;-0.56;46.33
82621;BME280;72291;55.002;-1.592;2024-01-16T05:37:31;99866.67;;;0.67;44.56
82621;BME280;72291;55.002;-1.592;2024-01-16T05:39:57;99868.55;;;-0.43;46.31
82621;BME280;72291;55.002;-1.592;2024-01-16T05:42:23;99871.65;;;-1.54;47.51
82621;BME280;72291;55.002;-1.592;2024-01-16T05:44:47;99870.25;;;-1.07;47.38
82621;BME280;72291;55.002;-1.592;2024-01-16T05:47:13;99859.52;;;0.22;45.25
82621;BME280;72291;55.002;-1.592;2024-01-16T05:49:38;99852.86;;;0.21;45.20
82621;BME280;72291;55.002;-1.592;2024-01-16T05:52:03;99849.56;;;-0.03;45.05
82621;BME280;72291;55.002;-1.592;2024-01-16T05:54:29;99845.72;;;-0.71;45.41
82621;BME280;72291;55.002;-1.592;2024-01-16T05:56:54;99836.70;;;0.16;44.95
82621;BME280;72291;55.002;-1.592;2024-01-16T05:59:20;99837.01;;;0.35;44.62
82621;BME280;72291;55.002;-1.592;2024-01-16T06:01:46;99838.53;;;0.31;44.90
82621;BME280;72291;55.002;-1.592;2024-01-16T06:04:10;99838.10;;;-0.07;45.80
82621;BME280;72291;55.002;-1.592;2024-01-16T06:06:36;99839.93;;;0.21;45.46
82621;BME280;72291;55.002;-1.592;2024-01-16T06:09:01;99844.90;;;-0.81;47.01
82621;BME280;72291;55.002;-1.592;2024-01-16T06:11:30;99839.32;;;-0.53;46.83
82621;BME280;72291;55.002;-1.592;2024-01-16T06:13:51;99834.94;;;-0.27;45.65
82621;BME280;72291;55.002;-1.592;2024-01-16T06:16:17;99831.56;;;-0.51;46.09
82621;BME280;72291;55.002;-1.592;2024-01-16T06:18:43;99823.56;;;0.14;45.18
82621;BME280;72291;55.002;-1.592;2024-01-16T06:21:07;99822.73;;;-0.71;46.42
82621;BME280;72291;55.002;-1.592;2024-01-16T06:23:33;99810.64;;;0.20;45.71
82621;BME280;72291;55.002;-1.592;2024-01-16T06:25:59;99803.21;;;-0.25;45.80
82621;BME280;72291;55.002;-1.592;2024-01-16T06:28:23;99802.02;;;0.63;45.24
82621;BME280;72291;55.002;-1.592;2024-01-16T06:30:50;99807.21;;;-0.34;46.35
82621;BME280;72291;55.002;-1.592;2024-01-16T06:33:14;99812.70;;;-1.84;49.12
82621;BME280;72291;55.002;-1.592;2024-01-16T06:35:39;99804.58;;;0.09;46.65
82621;BME280;72291;55.002;-1.592;2024-01-16T06:38:04;99800.53;;;-0.20;46.53
82621;BME280;72291;55.002;-1.592;2024-01-16T06:40:30;99798.12;;;-0.33;46.85
82621;BME280;72291;55.002;-1.592;2024-01-16T06:42:56;99795.06;;;-0.37;47.16
82621;BME280;72291;55.002;-1.592;2024-01-16T06:45:20;99789.51;;;0.04;46.48
82621;BME280;72291;55.002;-1.592;2024-01-16T06:47:46;99787.84;;;-0.20;46.49
82621;BME280;72291;55.002;-1.592;2024-01-16T06:50:11;99776.94;;;0.15;46.24
82621;BME280;72291;55.002;-1.592;2024-01-16T06:52:36;99771.39;;;-0.09;46.78
82621;BME280;72291;55.002;-1.592;2024-01-16T06:55:05;99770.20;;;0.06;47.48
82621;BME280;72291;55.002;-1.592;2024-01-16T06:57:27;99765.35;;;0.22;47.23
82621;BME280;72291;55.002;-1.592;2024-01-16T06:59:52;99767.32;;;-0.02;47.19
82621;BME280;72291;55.002;-1.592;2024-01-16T07:02:17;99765.33;;;-0.49;48.29
82621;BME280;72291;55.002;-1.592;2024-01-16T07:04:43;99756.53;;;0.55;46.74
82621;BME280;72291;55.002;-1.592;2024-01-16T07:07:08;99749.44;;;0.57;46.62
82621;BME280;72291;55.002;-1.592;2024-01-16T07:09:34;99752.69;;;0.64;46.63
82621;BME280;72291;55.002;-1.592;2024-01-16T07:11:59;99744.30;;;0.48;46.73
82621;BME280;72291;55.002;-1.592;2024-01-16T07:14:24;99737.36;;;0.54;47.05
82621;BME280;72291;55.002;-1.592;2024-01-16T07:16:49;99737.72;;;-1.12;50.23
82621;BME280;72291;55.002;-1.592;2024-01-16T07:19:14;99727.44;;;0.12;48.19
82621;BME280;72291;55.002;-1.592;2024-01-16T07:21:40;99730.35;;;-0.80;50.50
82621;BME280;72291;55.002;-1.592;2024-01-16T07:24:05;99727.26;;;0.05;49.25
82621;BME280;72291;55.002;-1.592;2024-01-16T07:26:30;99729.27;;;-0.20;50.05
82621;BME280;72291;55.002;-1.592;2024-01-16T07:28:56;99726.15;;;0.38;49.15
82621;BME280;72291;55.002;-1.592;2024-01-16T07:31:23;99734.65;;;-0.27;50.27
82621;BME280;72291;55.002;-1.592;2024-01-16T07:33:46;99733.17;;;-0.02;49.89
82621;BME280;72291;55.002;-1.592;2024-01-16T07:36:11;99736.40;;;0.29;50.31
82621;BME280;72291;55.002;-1.592;2024-01-16T07:38:37;99736.99;;;-1.30;52.57
82621;BME280;72291;55.002;-1.592;2024-01-16T07:41:02;99736.15;;;-0.33;51.82
82621;BME280;72291;55.002;-1.592;2024-01-16T07:43:28;99736.04;;;-0.58;52.37
82621;BME280;72291;55.002;-1.592;2024-01-16T07:45:53;99736.81;;;-0.02;51.56
82621;BME280;72291;55.002;-1.592;2024-01-16T07:48:18;99733.74;;;0.33;50.91
82621;BME280;72291;55.002;-1.592;2024-01-16T07:50:43;99725.65;;;0.75;49.80
82621;BME280;72291;55.002;-1.592;2024-01-16T07:53:08;99721.00;;;0.52;48.97
82621;BME280;72291;55.002;-1.592;2024-01-16T07:55:34;99714.53;;;1.60;47.85
82621;BME280;72291;55.002;-1.592;2024-01-16T07:57:59;99707.68;;;0.70;49.01
82621;BME280;72291;55.002;-1.592;2024-01-16T08:00:24;99700.37;;;1.33;48.58
82621;BME280;72291;55.002;-1.592;2024-01-16T08:02:49;99694.56;;;0.72;48.85
82621;BME280;72291;55.002;-1.592;2024-01-16T08:05:15;99692.51;;;1.11;47.45
82621;BME280;72291;55.002;-1.592;2024-01-16T08:07:42;99693.04;;;1.61;46.82
82621;BME280;72291;55.002;-1.592;2024-01-16T08:10:06;99692.28;;;1.75;46.35
82621;BME280;72291;55.002;-1.592;2024-01-16T08:12:30;99692.88;;;1.40;46.76
82621;BME280;72291;55.002;-1.592;2024-01-16T08:14:56;99690.56;;;1.00;47.38
82621;BME280;72291;55.002;-1.592;2024-01-16T08:17:22;99687.05;;;1.04;47.04
82621;BME280;72291;55.002;-1.592;2024-01-16T08:19:47;99683.01;;;1.25;47.37
82621;BME280;72291;55.002;-1.592;2024-01-16T08:22:12;99678.85;;;1.37;46.41
82621;BME280;72291;55.002;-1.592;2024-01-16T08:24:37;99678.33;;;1.26;46.64
82621;BME280;72291;55.002;-1.592;2024-01-16T08:27:02;99677.16;;;1.29;46.55
82621;BME280;72291;55.002;-1.592;2024-01-16T08:29:27;99675.88;;;1.79;46.11
82621;BME280;72291;55.002;-1.592;2024-01-16T08:31:54;99673.26;;;1.40;46.18
82621;BME280;72291;55.002;-1.592;2024-01-16T08:34:18;99666.78;;;1.86;45.38
82621;BME280;72291;55.002;-1.592;2024-01-16T08:36:43;99670.20;;;1.45;46.07
82621;BME280;72291;55.002;-1.592;2024-01-16T08:39:09;99666.75;;;1.98;44.83
82621;BME280;72291;55.002;-1.592;2024-01-16T08:41:35;99662.75;;;2.29;44.69
82621;BME280;72291;55.002;-1.592;2024-01-16T08:44:00;99653.97;;;2.35;44.64
82621;BME280;72291;55.002;-1.592;2024-01-16T08:46:24;99658.08;;;1.36;46.53
82621;BME280;72291;55.002;-1.592;2024-01-16T08:48:50;99655.22;;;0.64;47.56
82621;BME280;72291;55.002;-1.592;2024-01-16T08:51:15;99648.29;;;0.23;48.60
82621;BME280;72291;55.002;-1.592;2024-01-16T08:53:40;99644.82;;;1.17;47.07
82621;BME280;72291;55.002;-1.592;2024-01-16T08:56:07;99638.64;;;0.78;47.96
82621;BME280;72291;55.002;-1.592;2024-01-16T08:58:31;99631.13;;;1.52;47.38
82621;BME280;72291;55.002;-1.592;2024-01-16T09:00:56;99625.68;;;1.59;47.32
82621;BME280;72291;55.002;-1.592;2024-01-16T09:03:21;99627.13;;;1.09;48.91
82621;BME280;72291;55.002;-1.592;2024-01-16T09:05:47;99620.95;;;0.50;50.30
82621;BME280;72291;55.002;-1.592;2024-01-16T09:08:13;99618.10;;;0.87;49.88
82621;BME280;72291;55.002;-1.592;2024-01-16T09:10:37;99616.27;;;0.27;50.37
82621;BME280;72291;55.002;-1.592;2024-01-16T09:13:03;99605.65;;;1.02;49.72
82621;BME280;72291;55.002;-1.592;2024-01-16T09:15:28;99608.14;;;1.13;49.38
82621;BME280;72291;55.002;-1.592;2024-01-16T09:17:53;99598.35;;;1.54;48.17
82621;BME280;72291;55.002;-1.592;2024-01-16T09:20:19;99593.30;;;1.41;47.97
82621;BME280;72291;55.002;-1.592;2024-01-16T09:22:44;99593.06;;;2.06;47.05
82621;BME280;72291;55.002;-1.592;2024-01-16T09:25:09;99592.10;;;1.88;47.19
82621;BME280;72291;55.002;-1.592;2024-01-16T09:27:35;99582.83;;;1.89;46.80
82621;BME280;72291;55.002;-1.592;2024-01-16T09:30:00;99584.27;;;1.87;46.70
82621;BME280;72291;55.002;-1.592;2024-01-16T09:32:26;99577.60;;;2.61;46.05
82621;BME280;72291;55.002;-1.592;2024-01-16T09:34:51;99578.73;;;2.32;45.53
82621;BME280;72291;55.002;-1.592;2024-01-16T09:37:16;99583.60;;;2.39;45.69
82621;BME280;72291;55.002;-1.592;2024-01-16T09:39:42;99586.45;;;2.22;45.88
82621;BME280;72291;55.002;-1.592;2024-01-16T09:42:07;99582.95;;;2.62;44.75
82621;BME280;72291;55.002;-1.592;2024-01-16T09:44:34;99585.03;;;2.09;45.62
82621;BME280;72291;55.002;-1.592;2024-01-16T09:46:58;99577.00;;;2.58;44.91
82621;BME280;72291;55.002;-1.592;2024-01-16T09:49:23;99579.99;;;2.00;46.32
82621;BME280;72291;55.002;-1.592;2024-01-16T09:51:49;99578.38;;;2.65;44.82
82621;BME280;72291;55.002;-1.592;2024-01-16T09:54:13;99581.69;;;2.71;45.32
82621;BME280;72291;55.002;-1.592;2024-01-16T09:56:42;99575.31;;;2.47;45.18
82621;BME280;72291;55.002;-1.592;2024-01-16T09:59:05;99570.97;;;2.97;44.32
82621;BME280;72291;55.002;-1.592;2024-01-16T10:01:30;99568.71;;;2.68;44.88
82621;BME280;72291;55.002;-1.592;2024-01-16T10:03:54;99562.54;;;2.46;45.09
82621;BME280;72291;55.002;-1.592;2024-01-16T10:06:20;99556.85;;;2.51;45.30
82621;BME280;72291;55.002;-1.592;2024-01-16T10:08:47;99549.95;;;3.43;43.63
82621;BME280;72291;55.002;-1.592;2024-01-16T10:11:10;99544.08;;;3.29;44.06
82621;BME280;72291;55.002;-1.592;2024-01-16T10:13:36;99541.71;;;2.97;44.08
82621;BME280;72291;55.002;-1.592;2024-01-16T10:16:01;99536.44;;;3.57;43.32
82621;BME280;72291;55.002;-1.592;2024-01-16T10:18:27;99530.83;;;2.85;44.28
82621;BME280;72291;55.002;-1.592;2024-01-16T10:20:52;99531.04;;;2.51;44.81
82621;BME280;72291;55.002;-1.592;2024-01-16T10:23:22;99527.53;;;2.51;45.06
82621;BME280;72291;55.002;-1.592;2024-01-16T10:25:42;99523.03;;;3.39;44.78
82621;BME280;72291;55.002;-1.592;2024-01-16T10:28:07;99522.70;;;3.14;44.33
82621;BME280;72291;55.002;-1.592;2024-01-16T10:30:33;99518.20;;;2.51;45.77
82621;BME280;72291;55.002;-1.592;2024-01-16T10:33:13;99514.61;;;2.02;46.81
82621;BME280;72291;55.002;-1.592;2024-01-16T10:35:23;99507.05;;;2.93;45.43
82621;BME280;72291;55.002;-1.592;2024-01-16T10:37:50;99503.00;;;1.86;48.06
82621;BME280;72291;55.002;-1.592;2024-01-16T10:40:16;99503.04;;;1.45;48.42
82621;BME280;72291;55.002;-1.592;2024-01-16T10:42:39;99495.73;;;2.07;47.67
82621;BME280;72291;55.002;-1.592;2024-01-16T10:45:07;99491.50;;;2.03;47.34
82621;BME280;72291;55.002;-1.592;2024-01-16T10:47:30;99484.89;;;1.53;48.02
82621;BME280;72291;55.002;-1.592;2024-01-16T10:49:55;99481.23;;;2.16;47.39
82621;BME280;72291;55.002;-1.592;2024-01-16T10:52:25;99480.50;;;1.35;47.65
82621;BME280;72291;55.002;-1.592;2024-01-16T10:54:47;99467.30;;;2.44;46.79
82621;BME280;72291;55.002;-1.592;2024-01-16T10:57:13;99466.28;;;2.25;47.02
82621;BME280;72291;55.002;-1.592;2024-01-16T10:59:42;99453.92;;;2.58;45.92
82621;BME280;72291;55.002;-1.592;2024-01-16T11:02:02;99443.91;;;3.32;44.97
82621;BME280;72291;55.002;-1.592;2024-01-16T11:04:27;99447.73;;;3.08;45.36
82621;BME280;72291;55.002;-1.592;2024-01-16T11:06:52;99441.79;;;3.12;44.86
82621;BME280;72291;55.002;-1.592;2024-01-16T11:09:20;99430.02;;;3.53;44.09
82621;BME280;72291;55.002;-1.592;2024-01-16T11:11:43;99431.91;;;2.44;46.69
82621;BME280;72291;55.002;-1.592;2024-01-16T11:14:08;99423.47;;;2.96;45.41
82621;BME280;72291;55.002;-1.592;2024-01-16T11:16:33;99423.63;;;2.37;46.37
82621;BME280;72291;55.002;-1.592;2024-01-16T11:18:58;99418.12;;;2.34;46.90
82621;BME280;72291;55.002;-1.592;2024-01-16T11:21:25;99412.57;;;3.51;45.42
82621;BME280;72291;55.002;-1.592;2024-01-16T11:23:48;99407.36;;;3.33;45.24
82621;BME280;72291;55.002;-1.592;2024-01-16T11:26:25;99405.49;;;1.78;48.37
82621;BME280;72291;55.002;-1.592;2024-01-16T11:28:39;99402.74;;;2.59;47.61
82621;BME280;72291;55.002;-1.592;2024-01-16T11:33:42;99390.59;;;2.40;47.22
82621;BME280;72291;55.002;-1.592;2024-01-16T11:35:55;99392.88;;;2.06;47.39
82621;BME280;72291;55.002;-1.592;2024-01-16T11:38:20;99381.96;;;1.81;48.64
82621;BME280;72291;55.002;-1.592;2024-01-16T11:40:46;99365.30;;;2.52;47.94
82621;BME280;72291;55.002;-1.592;2024-01-16T11:45:48;99372.99;;;0.99;50.62
82621;BME280;72291;55.002;-1.592;2024-01-16T11:48:10;99354.81;;;2.14;48.54
82621;BME280;72291;55.002;-1.592;2024-01-16T11:50:28;99358.87;;;1.14;50.90
82621;BME280;72291;55.002;-1.592;2024-01-16T11:52:52;99351.05;;;1.24;50.39
82621;BME280;72291;55.002;-1.592;2024-01-16T11:55:25;99338.51;;;2.36;48.69
82621;BME280;72291;55.002;-1.592;2024-01-16T11:57:53;99335.71;;;1.25;50.70
82621;BME280;72291;55.002;-1.592;2024-01-16T12:00:18;99330.67;;;1.99;48.44
82621;BME280;72291;55.002;-1.592;2024-01-16T12:02:46;99331.26;;;3.21;47.71
82621;BME280;72291;55.002;-1.592;2024-01-16T12:04:59;99325.92;;;2.17;48.83
82621;BME280;72291;55.002;-1.592;2024-01-16T12:07:25;99316.49;;;3.10;47.28
82621;BME280;72291;55.002;-1.592;2024-01-16T12:09:52;99322.32;;;1.05;50.50
82621;BME280;72291;55.002;-1.592;2024-01-16T12:12:16;99311.08;;;0.68;52.21
82621;BME280;72291;55.002;-1.592;2024-01-16T12:14:51;99317.07;;;-0.29;56.60
82621;BME280;72291;55.002;-1.592;2024-01-16T12:17:09;99306.94;;;0.38;55.12
82621;BME280;72291;55.002;-1.592;2024-01-16T12:19:32;99304.67;;;0.39;56.70
82621;BME280;72291;55.002;-1.592;2024-01-16T12:21:57;99292.89;;;-0.28;58.24
82621;BME280;72291;55.002;-1.592;2024-01-16T12:24:22;99291.46;;;-1.07;61.46
82621;BME280;72291;55.002;-1.592;2024-01-16T12:26:48;99283.94;;;-0.82;60.91
82621;BME280;72291;55.002;-1.592;2024-01-16T12:29:13;99284.37;;;-0.90;61.98
82621;BME280;72291;55.002;-1.592;2024-01-16T12:31:38;99278.74;;;-1.32;64.79
82621;BME280;72291;55.002;-1.592;2024-01-16T12:34:06;99266.46;;;-1.56;64.43
82621;BME280;72291;55.002;-1.592;2024-01-16T12:36:29;99265.05;;;-1.33;65.98
82621;BME280;72291;55.002;-1.592;2024-01-16T12:38:55;99254.68;;;-0.53;63.93
82621;BME280;72291;55.002;-1.592;2024-01-16T12:41:20;99250.15;;;-0.95;63.87
82621;BME280;72291;55.002;-1.592;2024-01-16T12:43:49;99240.75;;;-0.97;65.67
82621;BME280;72291;55.002;-1.592;2024-01-16T12:46:12;99231.16;;;-1.76;68.24